createdAt,value
2019-05-18T00:00:33.015Z,0.00
2019-05-18T00:01:33.009Z,0.00
2019-05-18T00:02:32.985Z,0.00
2019-05-18T00:03:32.976Z,0.00
2019-05-18T00:04:32.976Z,0.00
2019-05-18T00:05:32.929Z,0.00
2019-05-18T00:06:32.910Z,0.00
2019-05-18T00:07:32.894Z,0.00
2019-05-18T00:08:32.884Z,0.00
2019-05-18T00:09:32.862Z,0.00
2019-05-18T00:10:32.853Z,0.00
2019-05-18T00:11:32.828Z,0.00
2019-05-18T00:12:32.808Z,0.00
2019-05-18T00:13:32.793Z,0.00
2019-05-18T00:14:32.776Z,0.00
2019-05-18T00:15:32.762Z,0.00
2019-05-18T00:16:32.744Z,0.00
2019-05-18T00:17:32.727Z,0.00
2019-05-18T00:18:32.703Z,0.00
2019-05-18T00:19:32.687Z,0.00
2019-05-18T00:20:32.668Z,0.00
2019-05-18T00:21:32.658Z,0.00
2019-05-18T00:22:32.640Z,0.00
2019-05-18T00:23:32.617Z,0.00
2019-05-18T00:24:32.601Z,0.00
2019-05-18T00:25:32.585Z,0.00
2019-05-18T00:26:32.568Z,0.00
2019-05-18T00:27:32.548Z,0.00
2019-05-18T00:28:32.544Z,0.00
2019-05-18T00:29:32.515Z,0.00
2019-05-18T00:30:32.498Z,0.00
2019-05-18T00:31:32.487Z,0.00
2019-05-18T00:32:32.459Z,0.00
2019-05-18T00:33:32.459Z,0.00
2019-05-18T00:34:32.429Z,0.00
2019-05-18T00:35:32.418Z,0.00
2019-05-18T00:36:32.390Z,0.00
2019-05-18T00:37:32.375Z,0.00
2019-05-18T00:38:32.357Z,0.00
2019-05-18T00:39:32.396Z,0.00
2019-05-18T00:40:32.322Z,0.00
2019-05-18T00:41:32.305Z,0.00
2019-05-18T00:42:32.286Z,0.00
2019-05-18T00:43:32.270Z,0.00
2019-05-18T00:44:32.252Z,0.00
2019-05-18T00:45:32.234Z,0.00
2019-05-18T00:46:32.218Z,0.00
2019-05-18T00:47:40.985Z,0.00
2019-05-18T00:48:32.181Z,0.00
2019-05-18T00:49:32.169Z,0.00
2019-05-18T00:50:32.145Z,0.00
2019-05-18T00:51:32.128Z,0.00
2019-05-18T00:52:32.114Z,0.00
2019-05-18T00:53:32.094Z,0.00
2019-05-18T00:54:32.076Z,0.00
2019-05-18T00:55:32.063Z,0.00
2019-05-18T00:56:32.051Z,0.00
2019-05-18T00:57:32.024Z,0.00
2019-05-18T00:58:32.008Z,0.00
2019-05-18T00:59:31.991Z,0.00
2019-05-18T01:00:31.980Z,0.00
2019-05-18T01:01:31.960Z,0.00
2019-05-18T01:02:31.936Z,0.00
2019-05-18T01:03:31.920Z,0.00
2019-05-18T01:04:31.900Z,0.00
2019-05-18T01:05:31.897Z,0.00
2019-05-18T01:06:31.871Z,0.00
2019-05-18T01:07:31.853Z,0.00
2019-05-18T01:08:31.833Z,0.00
2019-05-18T01:09:31.819Z,0.00
2019-05-18T01:10:31.797Z,0.00
2019-05-18T01:11:31.783Z,0.00
2019-05-18T01:12:31.766Z,0.00
2019-05-18T01:13:31.744Z,0.00
2019-05-18T01:14:31.726Z,0.00
2019-05-18T01:15:31.715Z,0.00
2019-05-18T01:16:31.694Z,0.00
2019-05-18T01:17:31.670Z,0.00
2019-05-18T01:18:31.662Z,0.00
2019-05-18T01:19:31.637Z,0.00
2019-05-18T01:20:31.618Z,0.00
2019-05-18T01:21:31.640Z,0.00
2019-05-18T01:22:31.580Z,0.00
2019-05-18T01:23:31.564Z,0.00
2019-05-18T01:24:31.549Z,0.00
2019-05-18T01:25:31.535Z,0.00
2019-05-18T01:26:31.518Z,0.00
2019-05-18T01:27:31.494Z,0.00
2019-05-18T01:28:31.479Z,0.00
2019-05-18T01:29:31.462Z,0.00
2019-05-18T01:30:31.442Z,0.00
2019-05-18T01:31:31.424Z,0.00
2019-05-18T01:32:31.409Z,0.00
2019-05-18T01:33:31.390Z,0.00
2019-05-18T01:34:31.372Z,0.00
2019-05-18T01:35:31.354Z,0.00
2019-05-18T01:36:31.336Z,0.00
2019-05-18T01:37:31.326Z,0.00
2019-05-18T01:38:31.303Z,0.00
2019-05-18T01:39:31.280Z,0.00
2019-05-18T01:40:31.265Z,0.00
2019-05-18T01:41:31.248Z,0.00
2019-05-18T01:42:31.230Z,0.00
2019-05-18T01:43:31.211Z,0.00
2019-05-18T01:44:31.193Z,0.00
2019-05-18T01:45:31.173Z,0.00
2019-05-18T01:46:31.159Z,0.00
2019-05-18T01:47:31.138Z,0.00
2019-05-18T01:48:31.122Z,0.00
2019-05-18T01:49:31.152Z,0.00
2019-05-18T01:50:31.087Z,0.00
2019-05-18T01:51:31.067Z,0.00
2019-05-18T01:52:31.050Z,0.00
2019-05-18T01:53:31.042Z,0.00
2019-05-18T01:54:31.013Z,0.00
2019-05-18T01:55:30.998Z,0.00
2019-05-18T01:56:30.976Z,0.00
2019-05-18T01:57:30.959Z,0.00
2019-05-18T01:58:30.940Z,0.00
2019-05-18T01:59:30.924Z,0.00
2019-05-18T02:00:30.908Z,0.00
2019-05-18T02:01:30.894Z,0.00
2019-05-18T02:02:30.871Z,0.00
2019-05-18T02:03:30.855Z,0.00
2019-05-18T02:04:30.835Z,0.00
2019-05-18T02:05:30.818Z,0.00
2019-05-18T02:06:30.801Z,0.00
2019-05-18T02:07:30.782Z,0.00
2019-05-18T02:08:30.769Z,0.00
2019-05-18T02:09:30.746Z,0.00
2019-05-18T02:10:30.728Z,0.00
2019-05-18T02:11:30.714Z,0.00
2019-05-18T02:12:30.689Z,0.00
2019-05-18T02:13:30.677Z,0.00
2019-05-18T02:14:30.656Z,0.00
2019-05-18T02:15:30.637Z,0.00
2019-05-18T02:16:30.628Z,0.00
2019-05-18T02:17:30.606Z,0.00
2019-05-18T02:18:30.588Z,0.00
2019-05-18T02:19:30.566Z,0.00
2019-05-18T02:20:30.550Z,0.00
2019-05-18T02:21:30.529Z,0.00
2019-05-18T02:22:30.514Z,0.00
2019-05-18T02:23:30.493Z,0.00
2019-05-18T02:24:30.474Z,0.00
2019-05-18T02:25:30.458Z,0.00
2019-05-18T02:26:30.436Z,0.00
2019-05-18T02:27:30.434Z,0.00
2019-05-18T02:28:30.403Z,0.00
2019-05-18T02:29:30.387Z,0.00
2019-05-18T02:30:30.365Z,0.00
2019-05-18T02:31:30.352Z,0.00
2019-05-18T02:32:30.329Z,0.00
2019-05-18T02:33:30.312Z,0.00
2019-05-18T02:34:30.304Z,0.00
2019-05-18T02:35:30.277Z,0.00
2019-05-18T02:36:30.260Z,0.00
2019-05-18T02:37:30.244Z,0.00
2019-05-18T02:38:30.222Z,0.00
2019-05-18T02:39:30.202Z,0.00
2019-05-18T02:40:30.189Z,0.00
2019-05-18T02:41:30.169Z,0.00
2019-05-18T02:42:30.918Z,0.00
2019-05-18T02:43:30.218Z,0.00
2019-05-18T02:44:30.113Z,0.00
2019-05-18T02:45:30.094Z,0.00
2019-05-18T02:46:30.081Z,0.00
2019-05-18T02:47:30.063Z,0.00
2019-05-18T02:48:47.142Z,0.00
2019-05-18T02:49:30.025Z,0.00
2019-05-18T02:50:30.004Z,0.00
2019-05-18T02:51:29.986Z,0.00
2019-05-18T02:52:29.970Z,0.00
2019-05-18T02:53:29.950Z,0.00
2019-05-18T02:54:29.931Z,0.00
2019-05-18T02:55:29.912Z,0.00
2019-05-18T02:56:29.892Z,0.00
2019-05-18T02:57:29.876Z,0.00
2019-05-18T02:58:29.867Z,0.00
2019-05-18T02:59:29.838Z,0.00
2019-05-18T03:00:29.820Z,0.00
2019-05-18T03:01:29.811Z,0.00
2019-05-18T03:02:29.785Z,0.00
2019-05-18T03:03:29.766Z,0.00
2019-05-18T03:04:29.748Z,0.00
2019-05-18T03:05:29.742Z,0.00
2019-05-18T03:06:29.711Z,0.00
2019-05-18T03:07:29.693Z,0.00
2019-05-18T03:08:29.675Z,0.00
2019-05-18T03:09:29.667Z,0.00
2019-05-18T03:10:29.640Z,0.00
2019-05-18T03:11:29.621Z,0.00
2019-05-18T03:12:29.604Z,0.00
2019-05-18T03:13:29.593Z,0.00
2019-05-18T03:14:29.572Z,0.00
2019-05-18T03:15:29.549Z,0.00
2019-05-18T03:16:29.536Z,0.00
2019-05-18T03:17:29.521Z,0.00
2019-05-18T03:18:29.499Z,0.00
2019-05-18T03:19:29.477Z,0.00
2019-05-18T03:20:29.461Z,0.00
2019-05-18T03:21:29.436Z,0.00
2019-05-18T03:22:29.424Z,0.00
2019-05-18T03:23:29.422Z,0.00
2019-05-18T03:24:29.386Z,0.00
2019-05-18T03:25:29.375Z,0.00
2019-05-18T03:26:29.349Z,0.00
2019-05-18T03:27:29.328Z,0.00
2019-05-18T03:28:29.319Z,0.00
2019-05-18T03:29:29.290Z,0.00
2019-05-18T03:30:29.289Z,0.00
2019-05-18T03:31:29.268Z,0.00
2019-05-18T03:32:29.251Z,0.00
2019-05-18T03:33:30.393Z,0.00
2019-05-18T03:34:29.198Z,0.00
2019-05-18T03:35:29.194Z,0.00
2019-05-18T03:36:29.162Z,0.00
2019-05-18T03:37:29.146Z,0.00
2019-05-18T03:38:29.127Z,0.00
2019-05-18T03:39:29.107Z,0.00
2019-05-18T03:40:29.089Z,5.63
2019-05-18T03:41:29.085Z,5.63
2019-05-18T03:42:29.051Z,5.63
2019-05-18T03:43:29.033Z,5.63
2019-05-18T03:44:29.016Z,5.63
2019-05-18T03:45:28.999Z,5.63
2019-05-18T03:46:28.982Z,5.63
2019-05-18T03:47:28.966Z,5.63
2019-05-18T03:48:28.939Z,5.63
2019-05-18T03:49:28.928Z,5.63
2019-05-18T03:50:28.905Z,5.63
2019-05-18T03:51:28.894Z,5.63
2019-05-18T03:52:28.867Z,5.63
2019-05-18T03:53:28.849Z,11.25
2019-05-18T03:54:28.861Z,11.25
2019-05-18T03:55:28.821Z,11.25
2019-05-18T03:56:28.797Z,11.25
2019-05-18T03:57:28.774Z,11.25
2019-05-18T03:58:28.760Z,11.25
2019-05-18T03:59:28.809Z,11.25
2019-05-18T04:00:28.728Z,11.25
2019-05-18T04:01:28.700Z,11.25
2019-05-18T04:02:28.687Z,11.25
2019-05-18T04:03:28.665Z,16.88
2019-05-18T04:04:28.649Z,16.88
2019-05-18T04:05:28.626Z,16.88
2019-05-18T04:06:28.689Z,16.88
2019-05-18T04:07:28.590Z,16.88
2019-05-18T04:08:28.572Z,16.88
2019-05-18T04:09:28.553Z,16.88
2019-05-18T04:10:28.542Z,16.88
2019-05-18T04:11:28.525Z,16.88
2019-05-18T04:12:28.499Z,22.50
2019-05-18T04:13:28.484Z,22.50
2019-05-18T04:14:28.463Z,22.50
2019-05-18T04:15:28.447Z,22.50
2019-05-18T04:16:28.425Z,22.50
2019-05-18T04:17:28.408Z,22.50
2019-05-18T04:18:28.399Z,22.50
2019-05-18T04:19:44.875Z,22.50
2019-05-18T04:20:28.356Z,22.50
2019-05-18T04:21:28.338Z,28.13
2019-05-18T04:22:28.315Z,28.13
2019-05-18T04:23:28.298Z,28.13
2019-05-18T04:24:28.293Z,28.13
2019-05-18T04:25:28.269Z,28.13
2019-05-18T04:26:28.245Z,28.13
2019-05-18T04:27:28.224Z,28.13
2019-05-18T04:28:28.207Z,33.75
2019-05-18T04:29:28.194Z,33.75
2019-05-18T04:30:28.169Z,33.75
2019-05-18T04:31:31.977Z,33.75
2019-05-18T04:32:28.141Z,33.75
2019-05-18T04:33:28.123Z,33.75
2019-05-18T04:34:28.095Z,33.75
2019-05-18T04:35:28.079Z,39.38
2019-05-18T04:36:28.170Z,39.38
2019-05-18T04:37:28.040Z,39.38
2019-05-18T04:38:28.029Z,39.38
2019-05-18T04:39:28.011Z,39.38
2019-05-18T04:40:27.988Z,39.38
2019-05-18T04:41:27.970Z,39.38
2019-05-18T04:42:27.954Z,45.00
2019-05-18T04:43:27.936Z,45.00
2019-05-18T04:44:27.925Z,45.00
2019-05-18T04:45:27.975Z,45.00
2019-05-18T04:46:27.879Z,45.00
2019-05-18T04:47:27.865Z,45.00
2019-05-18T04:48:27.842Z,50.63
2019-05-18T04:49:27.822Z,50.63
2019-05-18T04:50:27.811Z,50.63
2019-05-18T04:51:27.792Z,50.63
2019-05-18T04:52:27.785Z,50.63
2019-05-18T04:53:27.754Z,50.63
2019-05-18T04:54:27.731Z,56.25
2019-05-18T04:55:27.715Z,56.25
2019-05-18T04:56:27.697Z,56.25
2019-05-18T04:57:27.678Z,56.25
2019-05-18T04:58:27.662Z,56.25
2019-05-18T04:59:27.646Z,56.25
2019-05-18T05:00:27.638Z,61.88
2019-05-18T05:01:27.617Z,61.88
2019-05-18T05:02:27.594Z,61.88
2019-05-18T05:03:27.573Z,61.88
2019-05-18T05:04:27.557Z,67.50
2019-05-18T05:05:27.539Z,67.50
2019-05-18T05:06:27.521Z,67.50
2019-05-18T05:07:27.515Z,67.50
2019-05-18T05:08:27.485Z,67.50
2019-05-18T05:09:27.465Z,67.50
2019-05-18T05:10:27.454Z,73.13
2019-05-18T05:11:27.431Z,73.13
2019-05-18T05:12:27.412Z,73.13
2019-05-18T05:13:27.403Z,73.13
2019-05-18T05:14:27.383Z,73.13
2019-05-18T05:15:27.359Z,73.13
2019-05-18T05:16:27.340Z,73.13
2019-05-18T05:17:27.333Z,73.13
2019-05-18T05:18:27.308Z,73.13
2019-05-18T05:19:27.291Z,73.13
2019-05-18T05:20:27.279Z,73.13
2019-05-18T05:21:27.269Z,73.13
2019-05-18T05:22:27.241Z,73.13
2019-05-18T05:23:27.221Z,78.75
2019-05-18T05:24:27.206Z,78.75
2019-05-18T05:25:27.186Z,78.75
2019-05-18T05:26:27.169Z,78.75
2019-05-18T05:27:27.150Z,78.75
2019-05-18T05:28:27.135Z,78.75
2019-05-18T05:29:27.129Z,78.75
2019-05-18T05:30:27.105Z,78.75
2019-05-18T05:31:27.088Z,84.38
2019-05-18T05:32:27.062Z,90.00
2019-05-18T05:33:27.048Z,90.00
2019-05-18T05:34:27.037Z,90.00
2019-05-18T05:35:27.011Z,90.00
2019-05-18T05:36:26.996Z,95.63
2019-05-18T05:37:26.976Z,95.63
2019-05-18T05:38:26.957Z,95.63
2019-05-18T05:39:26.947Z,95.63
2019-05-18T05:40:26.921Z,101.25
2019-05-18T05:41:26.905Z,101.25
2019-05-18T05:42:26.890Z,101.25
2019-05-18T05:43:26.869Z,101.25
2019-05-18T05:44:26.862Z,101.25
2019-05-18T05:45:26.834Z,106.88
2019-05-18T05:46:26.817Z,106.88
2019-05-18T05:47:26.801Z,106.88
2019-05-18T05:48:26.782Z,106.88
2019-05-18T05:49:26.765Z,112.50
2019-05-18T05:50:35.520Z,112.50
2019-05-18T05:51:26.739Z,112.50
2019-05-18T05:52:26.712Z,112.50
2019-05-18T05:53:26.696Z,112.50
2019-05-18T05:54:26.678Z,112.50
2019-05-18T05:55:26.662Z,112.50
2019-05-18T05:56:26.643Z,106.88
2019-05-18T05:57:26.626Z,106.88
2019-05-18T05:58:26.610Z,112.50
2019-05-18T05:59:26.595Z,129.38
2019-05-18T06:00:26.576Z,135.00
2019-05-18T06:01:26.558Z,146.25
2019-05-18T06:02:26.542Z,146.25
2019-05-18T06:03:26.523Z,146.25
2019-05-18T06:04:26.510Z,146.25
2019-05-18T06:05:26.491Z,146.25
2019-05-18T06:06:26.472Z,140.63
2019-05-18T06:07:26.456Z,140.63
2019-05-18T06:08:26.438Z,140.63
2019-05-18T06:09:26.422Z,140.63
2019-05-18T06:10:26.404Z,140.63
2019-05-18T06:11:26.385Z,140.63
2019-05-18T06:12:26.380Z,140.63
2019-05-18T06:13:26.352Z,140.63
2019-05-18T06:14:26.338Z,140.63
2019-05-18T06:15:26.319Z,146.25
2019-05-18T06:16:26.302Z,146.25
2019-05-18T06:17:26.286Z,146.25
2019-05-18T06:18:26.268Z,146.25
2019-05-18T06:19:26.263Z,151.88
2019-05-18T06:20:26.237Z,151.88
2019-05-18T06:21:26.221Z,151.88
2019-05-18T06:22:26.207Z,157.50
2019-05-18T06:23:26.188Z,157.50
2019-05-18T06:24:26.172Z,157.50
2019-05-18T06:25:26.152Z,157.50
2019-05-18T06:26:26.154Z,163.13
2019-05-18T06:27:26.119Z,163.13
2019-05-18T06:28:26.113Z,163.13
2019-05-18T06:29:26.087Z,163.13
2019-05-18T06:30:26.082Z,168.75
2019-05-18T06:31:26.063Z,168.75
2019-05-18T06:32:26.038Z,168.75
2019-05-18T06:33:26.028Z,174.38
2019-05-18T06:34:26.007Z,174.38
2019-05-18T06:35:25.998Z,174.38
2019-05-18T06:36:25.975Z,180.00
2019-05-18T06:37:25.959Z,180.00
2019-05-18T06:38:25.947Z,180.00
2019-05-18T06:39:25.936Z,180.00
2019-05-18T06:40:25.912Z,180.00
2019-05-18T06:41:25.899Z,185.63
2019-05-18T06:42:25.880Z,185.63
2019-05-18T06:43:25.877Z,185.63
2019-05-18T06:44:25.848Z,185.63
2019-05-18T06:45:25.841Z,185.63
2019-05-18T06:46:25.820Z,180.00
2019-05-18T06:47:25.807Z,185.63
2019-05-18T06:48:25.804Z,185.63
2019-05-18T06:49:25.778Z,185.63
2019-05-18T06:50:25.766Z,191.25
2019-05-18T06:51:25.740Z,191.25
2019-05-18T06:52:25.737Z,191.25
2019-05-18T06:53:25.716Z,196.88
2019-05-18T06:54:25.708Z,196.88
2019-05-18T06:55:25.680Z,202.50
2019-05-18T06:56:25.670Z,202.50
2019-05-18T06:57:25.653Z,202.50
2019-05-18T06:58:25.634Z,202.50
2019-05-18T06:59:25.628Z,208.13
2019-05-18T07:00:25.611Z,208.13
2019-05-18T07:01:25.592Z,213.75
2019-05-18T07:02:25.575Z,219.38
2019-05-18T07:03:25.582Z,213.75
2019-05-18T07:04:25.543Z,219.38
2019-05-18T07:05:25.528Z,219.38
2019-05-18T07:06:25.525Z,225.00
2019-05-18T07:07:25.505Z,225.00
2019-05-18T07:08:25.486Z,225.00
2019-05-18T07:09:25.568Z,230.63
2019-05-18T07:10:25.454Z,230.63
2019-05-18T07:11:25.442Z,230.63
2019-05-18T07:12:25.428Z,236.25
2019-05-18T07:13:25.454Z,236.25
2019-05-18T07:14:26.227Z,247.50
2019-05-18T07:15:25.388Z,241.88
2019-05-18T07:16:25.369Z,241.88
2019-05-18T07:17:25.355Z,230.63
2019-05-18T07:18:30.739Z,247.50
2019-05-18T07:19:25.418Z,253.13
2019-05-18T07:20:25.338Z,247.50
2019-05-18T07:21:25.298Z,236.25
2019-05-18T07:22:25.292Z,258.75
2019-05-18T07:23:25.270Z,258.75
2019-05-18T07:24:25.263Z,258.75
2019-05-18T07:25:25.244Z,258.75
2019-05-18T07:26:25.228Z,258.75
2019-05-18T07:27:25.216Z,264.38
2019-05-18T07:28:25.199Z,258.75
2019-05-18T07:29:25.187Z,258.75
2019-05-18T07:30:25.173Z,253.13
2019-05-18T07:31:31.140Z,258.75
2019-05-18T07:32:25.149Z,258.75
2019-05-18T07:33:58.525Z,258.75
2019-05-18T07:34:26.672Z,258.75
2019-05-18T07:35:25.106Z,264.38
2019-05-18T07:36:25.099Z,275.63
2019-05-18T07:37:25.138Z,281.25
2019-05-18T07:38:26.151Z,286.88
2019-05-18T07:39:25.055Z,286.88
2019-05-18T07:40:25.045Z,281.25
2019-05-18T07:41:25.032Z,292.50
2019-05-18T07:42:25.012Z,286.88
2019-05-18T07:43:24.998Z,286.88
2019-05-18T07:44:24.987Z,281.25
2019-05-18T07:45:24.977Z,281.25
2019-05-18T07:46:24.961Z,286.88
2019-05-18T07:47:24.945Z,275.63
2019-05-18T07:48:24.932Z,281.25
2019-05-18T07:49:24.919Z,281.25
2019-05-18T07:50:24.910Z,275.63
2019-05-18T07:51:36.244Z,275.63
2019-05-18T07:52:24.884Z,281.25
2019-05-18T07:53:24.872Z,292.50
2019-05-18T07:54:24.858Z,292.50
2019-05-18T07:55:24.855Z,298.13
2019-05-18T07:56:24.837Z,303.75
2019-05-18T07:57:24.832Z,303.75
2019-05-18T07:58:24.814Z,303.75
2019-05-18T07:59:24.799Z,303.75
2019-05-18T08:00:24.786Z,309.38
2019-05-18T08:01:24.774Z,320.63
2019-05-18T08:02:24.770Z,320.63
2019-05-18T08:03:24.754Z,326.25
2019-05-18T08:04:24.747Z,326.25
2019-05-18T08:05:24.731Z,326.25
2019-05-18T08:06:24.724Z,337.50
2019-05-18T08:07:24.719Z,337.50
2019-05-18T08:08:24.696Z,382.50
2019-05-18T08:09:24.683Z,523.13
2019-05-18T08:10:24.687Z,770.63
2019-05-18T08:11:24.661Z,1046.25
2019-05-18T08:12:24.651Z,1310.63
2019-05-18T08:13:24.639Z,1445.63
2019-05-18T08:14:24.629Z,1603.13
2019-05-18T08:15:24.625Z,1743.75
2019-05-18T08:16:24.610Z,1687.50
2019-05-18T08:17:24.603Z,1636.88
2019-05-18T08:18:24.603Z,1704.38
2019-05-18T08:19:24.587Z,1631.25
2019-05-18T08:20:24.580Z,1215.00
2019-05-18T08:21:24.572Z,1141.88
2019-05-18T08:22:24.562Z,1231.88
2019-05-18T08:23:24.556Z,1215.00
2019-05-18T08:24:24.552Z,1288.13
2019-05-18T08:25:24.541Z,1378.13
2019-05-18T08:26:24.546Z,1428.75
2019-05-18T08:27:24.525Z,1310.63
2019-05-18T08:28:24.517Z,1063.13
2019-05-18T08:29:24.513Z,905.63
2019-05-18T08:30:24.507Z,1040.63
2019-05-18T08:31:24.582Z,703.13
2019-05-18T08:32:24.494Z,720.00
2019-05-18T08:33:24.505Z,725.63
2019-05-18T08:34:24.481Z,759.38
2019-05-18T08:35:27.082Z,838.13
2019-05-18T08:36:24.465Z,1265.63
2019-05-18T08:37:24.461Z,1293.75
2019-05-18T08:38:24.455Z,1299.38
2019-05-18T08:39:24.446Z,1395.00
2019-05-18T08:40:24.439Z,1440.00
2019-05-18T08:41:24.435Z,1518.75
2019-05-18T08:42:24.430Z,1546.88
2019-05-18T08:43:24.432Z,1440.00
2019-05-18T08:44:24.434Z,1170.00
2019-05-18T08:45:24.422Z,1215.00
2019-05-18T08:46:24.415Z,1260.00
2019-05-18T08:47:24.411Z,1372.50
2019-05-18T08:48:24.409Z,1344.38
2019-05-18T08:49:24.404Z,1321.88
2019-05-18T08:50:24.402Z,1378.13
2019-05-18T08:51:24.401Z,1350.00
2019-05-18T08:52:24.393Z,1282.50
2019-05-18T08:53:24.396Z,1226.25
2019-05-18T08:54:24.388Z,1158.75
2019-05-18T08:55:24.394Z,1074.38
2019-05-18T08:56:24.386Z,1119.38
2019-05-18T08:57:24.385Z,1141.88
2019-05-18T08:58:24.381Z,1113.75
2019-05-18T08:59:24.378Z,1248.75
2019-05-18T09:00:24.373Z,1181.25
2019-05-18T09:01:24.369Z,1147.50
2019-05-18T09:02:24.370Z,1260.00
2019-05-18T09:03:24.369Z,1147.50
2019-05-18T09:04:24.360Z,1080.00
2019-05-18T09:05:24.359Z,1113.75
2019-05-18T09:06:24.357Z,1046.25
2019-05-18T09:07:24.359Z,1046.25
2019-05-18T09:08:24.350Z,1108.13
2019-05-18T09:09:24.344Z,1012.50
2019-05-18T09:10:24.345Z,1068.75
2019-05-18T09:11:24.346Z,1035.00
2019-05-18T09:12:24.337Z,1192.50
2019-05-18T09:13:24.334Z,1108.13
2019-05-18T09:14:24.339Z,1215.00
2019-05-18T09:15:24.327Z,1136.25
2019-05-18T09:16:24.335Z,1057.50
2019-05-18T09:17:24.382Z,1085.63
2019-05-18T09:18:24.342Z,1175.63
2019-05-18T09:19:24.316Z,1192.50
2019-05-18T09:20:24.309Z,1215.00
2019-05-18T09:21:24.306Z,945.00
2019-05-18T09:22:24.306Z,1164.38
2019-05-18T09:23:24.302Z,1231.88
2019-05-18T09:24:24.299Z,1203.75
2019-05-18T09:25:24.299Z,1102.50
2019-05-18T09:26:24.290Z,967.50
2019-05-18T09:27:24.286Z,781.88
2019-05-18T09:28:24.289Z,939.38
2019-05-18T09:29:24.308Z,1125.00
2019-05-18T09:30:24.276Z,1113.75
2019-05-18T09:31:24.273Z,1125.00
2019-05-18T09:32:24.317Z,1119.38
2019-05-18T09:33:24.295Z,1102.50
2019-05-18T09:34:24.261Z,1125.00
2019-05-18T09:35:24.577Z,1113.75
2019-05-18T09:36:24.257Z,1119.38
2019-05-18T09:37:24.249Z,1102.50
2019-05-18T09:38:24.245Z,961.88
2019-05-18T09:39:24.243Z,607.50
2019-05-18T09:40:24.242Z,455.63
2019-05-18T09:41:24.236Z,450.00
2019-05-18T09:42:24.230Z,455.63
2019-05-18T09:43:24.228Z,450.00
2019-05-18T09:44:24.223Z,444.38
2019-05-18T09:45:24.218Z,438.75
2019-05-18T09:46:24.218Z,433.13
2019-05-18T09:47:24.218Z,433.13
2019-05-18T09:48:24.233Z,416.25
2019-05-18T09:49:24.541Z,433.13
2019-05-18T09:51:24.196Z,427.50
2019-05-18T09:52:43.551Z,393.75
2019-05-18T09:53:24.187Z,382.50
2019-05-18T09:55:24.202Z,348.75
2019-05-18T09:56:24.719Z,343.13
2019-05-18T09:57:24.380Z,337.50
2019-05-18T09:58:24.172Z,360.00
2019-05-18T09:59:24.160Z,360.00
2019-05-18T10:00:24.154Z,348.75
2019-05-18T10:01:24.149Z,360.00
2019-05-18T10:02:24.148Z,365.63
2019-05-18T10:03:24.140Z,360.00
2019-05-18T10:04:24.142Z,371.25
2019-05-18T10:05:24.131Z,354.38
2019-05-18T10:06:24.130Z,337.50
2019-05-18T10:07:24.119Z,331.88
2019-05-18T10:08:24.111Z,326.25
2019-05-18T10:09:24.202Z,320.63
2019-05-18T10:10:24.107Z,286.88
2019-05-18T10:11:24.195Z,298.13
2019-05-18T10:12:24.812Z,292.50
2019-05-18T10:13:24.724Z,298.13
2019-05-18T10:14:24.419Z,303.75
2019-05-18T10:15:24.397Z,309.38
2019-05-18T10:16:24.785Z,326.25
2019-05-18T10:17:24.098Z,331.88
2019-05-18T10:18:25.471Z,360.00
2019-05-18T10:19:24.401Z,354.38
2019-05-18T10:20:32.411Z,343.13
2019-05-18T10:21:24.077Z,343.13
2019-05-18T10:22:24.100Z,343.13
2019-05-18T10:23:24.071Z,365.63
2019-05-18T10:24:24.266Z,354.38
2019-05-18T10:25:25.762Z,303.75
2019-05-18T10:27:24.338Z,264.38
2019-05-18T10:28:24.337Z,258.75
2019-05-18T10:29:23.988Z,253.13
2019-05-18T10:30:23.984Z,275.63
2019-05-18T10:31:24.296Z,258.75
2019-05-18T10:32:23.973Z,241.88
2019-05-18T10:33:26.115Z,241.88
2019-05-18T10:34:23.964Z,241.88
2019-05-18T10:35:23.949Z,247.50
2019-05-18T10:36:23.946Z,253.13
2019-05-18T10:37:23.929Z,253.13
2019-05-18T10:38:24.247Z,253.13
2019-05-18T10:39:23.913Z,253.13
2019-05-18T10:40:23.916Z,253.13
2019-05-18T10:41:23.899Z,264.38
2019-05-18T10:42:23.889Z,258.75
2019-05-18T10:43:23.889Z,258.75
2019-05-18T10:44:23.881Z,258.75
2019-05-18T10:45:23.866Z,258.75
2019-05-18T10:47:23.855Z,270.00
2019-05-18T10:48:23.840Z,275.63
2019-05-18T10:49:23.838Z,298.13
2019-05-18T10:50:23.830Z,286.88
2019-05-18T10:51:23.818Z,286.88
2019-05-18T10:52:23.817Z,292.50
2019-05-18T10:53:28.841Z,292.50
2019-05-18T10:54:23.801Z,315.00
2019-05-18T10:55:23.801Z,354.38
2019-05-18T10:56:23.779Z,376.88
2019-05-18T10:57:23.772Z,326.25
2019-05-18T10:58:23.769Z,315.00
2019-05-18T10:59:23.754Z,298.13
2019-05-18T11:00:23.756Z,343.13
2019-05-18T11:01:23.739Z,315.00
2019-05-18T11:02:23.735Z,326.25
2019-05-18T11:03:23.725Z,258.75
2019-05-18T11:04:23.713Z,247.50
2019-05-18T11:05:23.708Z,241.88
2019-05-18T11:06:23.706Z,253.13
2019-05-18T11:07:23.696Z,264.38
2019-05-18T11:08:23.687Z,281.25
2019-05-18T11:09:23.676Z,320.63
2019-05-18T11:10:23.670Z,337.50
2019-05-18T11:11:23.666Z,331.88
2019-05-18T11:12:23.660Z,298.13
2019-05-18T11:13:23.644Z,286.88
2019-05-18T11:14:23.639Z,281.25
2019-05-18T11:15:23.647Z,326.25
2019-05-18T11:16:23.626Z,303.75
2019-05-18T11:17:23.628Z,331.88
2019-05-18T11:18:23.612Z,326.25
2019-05-18T11:19:23.603Z,315.00
2019-05-18T11:20:23.598Z,320.63
2019-05-18T11:21:23.652Z,320.63
2019-05-18T11:22:23.643Z,315.00
2019-05-18T11:23:23.594Z,315.00
2019-05-18T11:24:23.571Z,258.75
2019-05-18T11:25:23.558Z,303.75
2019-05-18T11:26:23.556Z,281.25
2019-05-18T11:27:23.556Z,286.88
2019-05-18T11:28:23.540Z,281.25
2019-05-18T11:29:24.266Z,298.13
2019-05-18T11:30:23.523Z,253.13
2019-05-18T11:31:23.517Z,281.25
2019-05-18T11:32:23.514Z,281.25
2019-05-18T11:33:23.525Z,275.63
2019-05-18T11:34:23.496Z,281.25
2019-05-18T11:35:23.491Z,281.25
2019-05-18T11:36:23.501Z,281.25
2019-05-18T11:37:23.495Z,275.63
2019-05-18T11:38:23.497Z,275.63
2019-05-18T11:39:23.466Z,275.63
2019-05-18T11:40:23.463Z,275.63
2019-05-18T11:41:23.451Z,275.63
2019-05-18T11:42:23.444Z,264.38
2019-05-18T11:43:23.434Z,264.38
2019-05-18T11:44:23.424Z,264.38
2019-05-18T11:45:23.420Z,258.75
2019-05-18T11:46:23.413Z,258.75
2019-05-18T11:47:23.410Z,264.38
2019-05-18T11:48:23.396Z,258.75
2019-05-18T11:49:23.398Z,270.00
2019-05-18T11:50:23.382Z,264.38
2019-05-18T11:51:23.387Z,258.75
2019-05-18T11:52:23.370Z,264.38
2019-05-18T11:53:23.369Z,253.13
2019-05-18T11:54:23.353Z,247.50
2019-05-18T11:55:23.348Z,247.50
2019-05-18T11:56:23.337Z,247.50
2019-05-18T11:57:23.339Z,247.50
2019-05-18T11:58:23.342Z,247.50
2019-05-18T11:59:23.320Z,247.50
2019-05-18T12:00:23.317Z,253.13
2019-05-18T12:01:23.303Z,253.13
2019-05-18T12:02:23.296Z,258.75
2019-05-18T12:03:23.289Z,258.75
2019-05-18T12:04:23.289Z,258.75
2019-05-18T12:05:23.274Z,258.75
2019-05-18T12:06:23.271Z,258.75
2019-05-18T12:07:23.272Z,258.75
2019-05-18T12:08:23.255Z,258.75
2019-05-18T12:09:23.275Z,258.75
2019-05-18T12:10:23.240Z,264.38
2019-05-18T12:11:23.241Z,258.75
2019-05-18T12:12:23.223Z,258.75
2019-05-18T12:13:23.226Z,264.38
2019-05-18T12:14:23.217Z,264.38
2019-05-18T12:15:23.221Z,258.75
2019-05-18T12:16:23.197Z,264.38
2019-05-18T12:17:23.193Z,258.75
2019-05-18T12:18:23.181Z,264.38
2019-05-18T12:19:23.187Z,140.63
2019-05-18T12:20:23.168Z,135.00
2019-05-18T12:21:23.159Z,135.00
2019-05-18T12:22:23.158Z,140.63
2019-05-18T12:23:23.151Z,140.63
2019-05-18T12:24:23.136Z,146.25
2019-05-18T12:25:23.141Z,151.88
2019-05-18T12:26:23.128Z,264.38
2019-05-18T12:27:23.120Z,270.00
2019-05-18T12:28:23.106Z,270.00
2019-05-18T12:29:23.101Z,230.63
2019-05-18T12:30:23.096Z,258.75
2019-05-18T12:31:23.094Z,174.38
2019-05-18T12:32:23.081Z,213.75
2019-05-18T12:33:23.078Z,230.63
2019-05-18T12:34:23.064Z,225.00
2019-05-18T12:35:23.054Z,270.00
2019-05-18T12:36:23.048Z,270.00
2019-05-18T12:37:23.045Z,264.38
2019-05-18T12:38:23.030Z,281.25
2019-05-18T12:39:23.024Z,286.88
2019-05-18T12:40:23.024Z,275.63
2019-05-18T12:41:23.010Z,236.25
2019-05-18T12:42:23.008Z,157.50
2019-05-18T12:43:22.996Z,258.75
2019-05-18T12:44:23.011Z,264.38
2019-05-18T12:45:22.989Z,264.38
2019-05-18T12:46:22.982Z,264.38
2019-05-18T12:47:22.969Z,264.38
2019-05-18T12:48:22.962Z,270.00